sensor_id;sensor_type;location;lat;lon;timestamp;temperature;humidity
39665;DHT22;26679;50.872;4.332;2023-05-16T00:00:23;11.50;99.90
39665;DHT22;26679;50.872;4.332;2023-05-16T00:02:52;11.50;99.90
39665;DHT22;26679;50.872;4.332;2023-05-16T00:05:17;11.40;99.90
39665;DHT22;26679;50.872;4.332;2023-05-16T00:07:43;11.40;99.90
39665;DHT22;26679;50.872;4.332;2023-05-16T00:10:10;11.30;99.90
39665;DHT22;26679;50.872;4.332;2023-05-16T00:12:35;11.30;99.90
39665;DHT22;26679;50.872;4.332;2023-05-16T00:15:02;11.30;99.90
39665;DHT22;26679;50.872;4.332;2023-05-16T00:17:29;11.30;99.90
39665;DHT22;26679;50.872;4.332;2023-05-16T00:19:55;11.30;99.90
39665;DHT22;26679;50.872;4.332;2023-05-16T00:22:23;11.20;99.90
39665;DHT22;26679;50.872;4.332;2023-05-16T00:24:48;11.20;99.90
39665;DHT22;26679;50.872;4.332;2023-05-16T00:27:14;11.10;99.90
39665;DHT22;26679;50.872;4.332;2023-05-16T00:29:39;11.20;99.90
39665;DHT22;26679;50.872;4.332;2023-05-16T00:32:05;11.00;99.90
39665;DHT22;26679;50.872;4.332;2023-05-16T00:34:33;11.00;99.90
39665;DHT22;26679;50.872;4.332;2023-05-16T00:36:58;10.90;99.90
39665;DHT22;26679;50.872;4.332;2023-05-16T00:39:24;10.90;99.90
39665;DHT22;26679;50.872;4.332;2023-05-16T00:41:49;10.90;99.90
39665;DHT22;26679;50.872;4.332;2023-05-16T00:44:15;10.90;99.90
39665;DHT22;26679;50.872;4.332;2023-05-16T00:46:41;10.80;99.90
39665;DHT22;26679;50.872;4.332;2023-05-16T00:49:07;10.80;99.90
39665;DHT22;26679;50.872;4.332;2023-05-16T00:51:32;10.70;99.90
39665;DHT22;26679;50.872;4.332;2023-05-16T00:53:58;10.70;99.90
39665;DHT22;26679;50.872;4.332;2023-05-16T00:56:24;10.60;99.90
39665;DHT22;26679;50.872;4.332;2023-05-16T00:58:49;10.60;99.90
39665;DHT22;26679;50.872;4.332;2023-05-16T01:01:15;10.60;99.90
39665;DHT22;26679;50.872;4.332;2023-05-16T01:03:41;10.60;99.90
39665;DHT22;26679;50.872;4.332;2023-05-16T01:06:07;10.60;99.90
39665;DHT22;26679;50.872;4.332;2023-05-16T01:08:32;10.50;99.90
39665;DHT22;26679;50.872;4.332;2023-05-16T01:16:15;10.60;99.90
39665;DHT22;26679;50.872;4.332;2023-05-16T01:18:53;10.50;99.90
39665;DHT22;26679;50.872;4.332;2023-05-16T01:26:35;10.40;99.90
39665;DHT22;26679;50.872;4.332;2023-05-16T01:29:01;10.40;99.90
39665;DHT22;26679;50.872;4.332;2023-05-16T01:31:28;10.40;99.90
39665;DHT22;26679;50.872;4.332;2023-05-16T01:33:54;10.40;99.90
39665;DHT22;26679;50.872;4.332;2023-05-16T01:41:39;10.30;99.90
39665;DHT22;26679;50.872;4.332;2023-05-16T01:44:15;10.20;99.90
39665;DHT22;26679;50.872;4.332;2023-05-16T01:46:42;10.20;99.90
39665;DHT22;26679;50.872;4.332;2023-05-16T01:49:20;10.10;99.90
39665;DHT22;26679;50.872;4.332;2023-05-16T01:54:28;10.20;99.90
39665;DHT22;26679;50.872;4.332;2023-05-16T01:56:55;10.20;99.90
39665;DHT22;26679;50.872;4.332;2023-05-16T01:59:21;10.20;99.90
39665;DHT22;26679;50.872;4.332;2023-05-16T02:01:47;10.20;99.90
39665;DHT22;26679;50.872;4.332;2023-05-16T02:04:13;10.20;99.90
39665;DHT22;26679;50.872;4.332;2023-05-16T02:06:40;10.20;99.90
39665;DHT22;26679;50.872;4.332;2023-05-16T02:09:06;10.20;99.90
39665;DHT22;26679;50.872;4.332;2023-05-16T02:11:31;10.20;99.90
39665;DHT22;26679;50.872;4.332;2023-05-16T02:13:57;10.20;99.90
39665;DHT22;26679;50.872;4.332;2023-05-16T02:16:23;10.10;99.90
39665;DHT22;26679;50.872;4.332;2023-05-16T02:18:48;10.00;99.90
39665;DHT22;26679;50.872;4.332;2023-05-16T02:21:13;10.00;99.90
39665;DHT22;26679;50.872;4.332;2023-05-16T02:23:39;10.00;99.90
39665;DHT22;26679;50.872;4.332;2023-05-16T02:26:04;9.90;99.90
39665;DHT22;26679;50.872;4.332;2023-05-16T02:28:30;9.90;99.90
39665;DHT22;26679;50.872;4.332;2023-05-16T02:30:56;10.00;99.90
39665;DHT22;26679;50.872;4.332;2023-05-16T02:33:22;10.00;99.90
39665;DHT22;26679;50.872;4.332;2023-05-16T02:35:48;10.00;99.90
39665;DHT22;26679;50.872;4.332;2023-05-16T02:38:14;9.90;99.90
39665;DHT22;26679;50.872;4.332;2023-05-16T02:40:41;9.90;99.90
39665;DHT22;26679;50.872;4.332;2023-05-16T02:43:07;9.90;99.90
39665;DHT22;26679;50.872;4.332;2023-05-16T02:45:32;9.90;99.90
39665;DHT22;26679;50.872;4.332;2023-05-16T02:47:58;9.90;99.90
39665;DHT22;26679;50.872;4.332;2023-05-16T02:50:23;9.90;99.90
39665;DHT22;26679;50.872;4.332;2023-05-16T02:52:49;9.90;99.90
39665;DHT22;26679;50.872;4.332;2023-05-16T02:55:15;9.90;99.90
39665;DHT22;26679;50.872;4.332;2023-05-16T02:57:40;9.90;99.90
39665;DHT22;26679;50.872;4.332;2023-05-16T03:00:06;9.90;99.90
39665;DHT22;26679;50.872;4.332;2023-05-16T03:02:34;9.90;99.90
39665;DHT22;26679;50.872;4.332;2023-05-16T03:04:59;9.80;99.90
39665;DHT22;26679;50.872;4.332;2023-05-16T03:07:25;9.80;99.90
39665;DHT22;26679;50.872;4.332;2023-05-16T03:09:50;9.80;99.90
39665;DHT22;26679;50.872;4.332;2023-05-16T03:12:16;9.80;99.90
39665;DHT22;26679;50.872;4.332;2023-05-16T03:14:42;9.80;99.90
39665;DHT22;26679;50.872;4.332;2023-05-16T03:17:07;9.80;99.90
39665;DHT22;26679;50.872;4.332;2023-05-16T03:19:33;9.80;99.90
39665;DHT22;26679;50.872;4.332;2023-05-16T03:21:59;9.80;99.90
39665;DHT22;26679;50.872;4.332;2023-05-16T03:24:24;9.80;99.90
39665;DHT22;26679;50.872;4.332;2023-05-16T03:26:50;9.80;99.90
39665;DHT22;26679;50.872;4.332;2023-05-16T03:29:16;9.70;99.90
39665;DHT22;26679;50.872;4.332;2023-05-16T03:31:41;9.70;99.90
39665;DHT22;26679;50.872;4.332;2023-05-16T03:34:07;9.70;99.90
39665;DHT22;26679;50.872;4.332;2023-05-16T03:36:33;9.80;99.90
39665;DHT22;26679;50.872;4.332;2023-05-16T03:38:59;9.80;99.90
39665;DHT22;26679;50.872;4.332;2023-05-16T03:41:25;9.70;99.90
39665;DHT22;26679;50.872;4.332;2023-05-16T03:43:50;9.60;99.90
39665;DHT22;26679;50.872;4.332;2023-05-16T03:46:16;9.60;99.90
39665;DHT22;26679;50.872;4.332;2023-05-16T03:48:41;9.60;99.90
39665;DHT22;26679;50.872;4.332;2023-05-16T03:51:07;9.60;99.90
39665;DHT22;26679;50.872;4.332;2023-05-16T03:53:32;9.60;99.90
39665;DHT22;26679;50.872;4.332;2023-05-16T03:55:58;9.60;99.90
39665;DHT22;26679;50.872;4.332;2023-05-16T03:58:24;9.70;99.90
39665;DHT22;26679;50.872;4.332;2023-05-16T04:00:49;9.70;99.90
39665;DHT22;26679;50.872;4.332;2023-05-16T04:03:15;9.70;99.90
39665;DHT22;26679;50.872;4.332;2023-05-16T04:05:40;9.50;99.90
39665;DHT22;26679;50.872;4.332;2023-05-16T04:08:06;9.50;99.90
39665;DHT22;26679;50.872;4.332;2023-05-16T04:10:32;9.50;99.90
39665;DHT22;26679;50.872;4.332;2023-05-16T04:12:57;9.50;99.90
39665;DHT22;26679;50.872;4.332;2023-05-16T04:15:23;9.60;99.90
39665;DHT22;26679;50.872;4.332;2023-05-16T04:17:48;9.60;99.90
39665;DHT22;26679;50.872;4.332;2023-05-16T04:20:14;9.60;99.90
39665;DHT22;26679;50.872;4.332;2023-05-16T04:22:40;9.50;99.90
39665;DHT22;26679;50.872;4.332;2023-05-16T04:25:06;9.60;99.90
39665;DHT22;26679;50.872;4.332;2023-05-16T04:27:31;9.60;99.90
39665;DHT22;26679;50.872;4.332;2023-05-16T04:29:57;9.60;99.90
39665;DHT22;26679;50.872;4.332;2023-05-16T04:32:24;9.60;99.90
39665;DHT22;26679;50.872;4.332;2023-05-16T04:34:50;9.70;99.90
39665;DHT22;26679;50.872;4.332;2023-05-16T04:37:17;9.70;99.90
39665;DHT22;26679;50.872;4.332;2023-05-16T04:39:43;9.60;99.90
39665;DHT22;26679;50.872;4.332;2023-05-16T04:42:08;9.60;99.90
39665;DHT22;26679;50.872;4.332;2023-05-16T04:44:34;9.70;99.90
39665;DHT22;26679;50.872;4.332;2023-05-16T04:46:59;9.70;99.90
39665;DHT22;26679;50.872;4.332;2023-05-16T04:49:25;9.70;99.90
39665;DHT22;26679;50.872;4.332;2023-05-16T04:51:50;9.70;99.90
39665;DHT22;26679;50.872;4.332;2023-05-16T04:54:16;9.70;99.90
39665;DHT22;26679;50.872;4.332;2023-05-16T04:56:41;9.70;99.90
39665;DHT22;26679;50.872;4.332;2023-05-16T04:59:07;9.70;99.90
39665;DHT22;26679;50.872;4.332;2023-05-16T05:01:32;9.70;99.90
39665;DHT22;26679;50.872;4.332;2023-05-16T05:03:58;9.60;99.90
39665;DHT22;26679;50.872;4.332;2023-05-16T05:06:23;9.70;99.90
39665;DHT22;26679;50.872;4.332;2023-05-16T05:08:49;9.80;99.90
39665;DHT22;26679;50.872;4.332;2023-05-16T05:11:15;9.80;99.90
39665;DHT22;26679;50.872;4.332;2023-05-16T05:13:40;9.80;99.90
39665;DHT22;26679;50.872;4.332;2023-05-16T05:16:06;9.80;99.90
39665;DHT22;26679;50.872;4.332;2023-05-16T05:18:31;9.90;99.90
39665;DHT22;26679;50.872;4.332;2023-05-16T05:20:57;9.90;99.90
39665;DHT22;26679;50.872;4.332;2023-05-16T05:23:23;9.90;99.90
39665;DHT22;26679;50.872;4.332;2023-05-16T05:25:49;9.80;99.90
39665;DHT22;26679;50.872;4.332;2023-05-16T05:28:14;9.90;99.90
39665;DHT22;26679;50.872;4.332;2023-05-16T05:30:40;9.90;99.90
39665;DHT22;26679;50.872;4.332;2023-05-16T05:33:06;10.00;99.90
39665;DHT22;26679;50.872;4.332;2023-05-16T05:35:31;10.10;99.90
39665;DHT22;26679;50.872;4.332;2023-05-16T05:37:57;10.00;99.90
39665;DHT22;26679;50.872;4.332;2023-05-16T05:40:22;10.00;99.90
39665;DHT22;26679;50.872;4.332;2023-05-16T05:42:48;10.10;99.90
39665;DHT22;26679;50.872;4.332;2023-05-16T05:45:14;10.20;99.90
39665;DHT22;26679;50.872;4.332;2023-05-16T05:47:43;10.20;99.90
39665;DHT22;26679;50.872;4.332;2023-05-16T05:50:08;10.30;99.90
39665;DHT22;26679;50.872;4.332;2023-05-16T05:52:36;10.40;99.90
39665;DHT22;26679;50.872;4.332;2023-05-16T05:55:02;10.40;99.90
39665;DHT22;26679;50.872;4.332;2023-05-16T05:57:27;10.50;99.90
39665;DHT22;26679;50.872;4.332;2023-05-16T05:59:53;10.50;99.90
39665;DHT22;26679;50.872;4.332;2023-05-16T06:02:19;10.40;99.90
39665;DHT22;26679;50.872;4.332;2023-05-16T06:04:45;10.50;99.90
39665;DHT22;26679;50.872;4.332;2023-05-16T06:07:12;10.50;99.90
39665;DHT22;26679;50.872;4.332;2023-05-16T06:09:39;10.60;99.90
39665;DHT22;26679;50.872;4.332;2023-05-16T06:12:05;10.60;99.90
39665;DHT22;26679;50.872;4.332;2023-05-16T06:14:30;10.80;99.90
39665;DHT22;26679;50.872;4.332;2023-05-16T06:16:56;10.80;99.90
39665;DHT22;26679;50.872;4.332;2023-05-16T06:19:22;11.00;99.90
39665;DHT22;26679;50.872;4.332;2023-05-16T06:21:47;11.30;99.90
39665;DHT22;26679;50.872;4.332;2023-05-16T06:24:13;11.40;99.90
39665;DHT22;26679;50.872;4.332;2023-05-16T06:26:39;11.40;99.90
39665;DHT22;26679;50.872;4.332;2023-05-16T06:29:04;11.20;99.90
39665;DHT22;26679;50.872;4.332;2023-05-16T06:31:30;11.30;99.90
39665;DHT22;26679;50.872;4.332;2023-05-16T06:33:56;11.80;99.90
39665;DHT22;26679;50.872;4.332;2023-05-16T06:36:21;12.20;99.90
39665;DHT22;26679;50.872;4.332;2023-05-16T06:38:47;12.50;99.90
39665;DHT22;26679;50.872;4.332;2023-05-16T06:41:12;12.40;99.90
39665;DHT22;26679;50.872;4.332;2023-05-16T06:43:38;12.20;99.90
39665;DHT22;26679;50.872;4.332;2023-05-16T06:46:04;12.30;99.90
39665;DHT22;26679;50.872;4.332;2023-05-16T06:48:30;12.40;99.90
39665;DHT22;26679;50.872;4.332;2023-05-16T06:50:55;12.50;99.90
39665;DHT22;26679;50.872;4.332;2023-05-16T06:53:21;12.70;99.90
39665;DHT22;26679;50.872;4.332;2023-05-16T06:55:47;12.60;99.90
39665;DHT22;26679;50.872;4.332;2023-05-16T06:58:13;12.70;99.90
39665;DHT22;26679;50.872;4.332;2023-05-16T07:00:38;12.60;99.90
39665;DHT22;26679;50.872;4.332;2023-05-16T07:03:04;12.80;99.90
39665;DHT22;26679;50.872;4.332;2023-05-16T07:05:29;13.10;99.90
39665;DHT22;26679;50.872;4.332;2023-05-16T07:07:55;13.10;99.90
39665;DHT22;26679;50.872;4.332;2023-05-16T07:10:21;13.00;99.90
39665;DHT22;26679;50.872;4.332;2023-05-16T07:12:46;13.10;99.90
39665;DHT22;26679;50.872;4.332;2023-05-16T07:15:12;13.20;99.90
39665;DHT22;26679;50.872;4.332;2023-05-16T07:17:38;13.20;99.90
39665;DHT22;26679;50.872;4.332;2023-05-16T07:20:04;13.30;99.90
39665;DHT22;26679;50.872;4.332;2023-05-16T07:22:30;13.40;99.90
39665;DHT22;26679;50.872;4.332;2023-05-16T07:24:59;13.50;99.90
39665;DHT22;26679;50.872;4.332;2023-05-16T07:27:28;13.30;99.90
39665;DHT22;26679;50.872;4.332;2023-05-16T07:29:56;13.30;99.90
39665;DHT22;26679;50.872;4.332;2023-05-16T07:32:22;13.10;99.90
39665;DHT22;26679;50.872;4.332;2023-05-16T07:34:47;13.10;99.90
39665;DHT22;26679;50.872;4.332;2023-05-16T07:37:13;13.10;99.90
39665;DHT22;26679;50.872;4.332;2023-05-16T07:39:40;13.10;99.90
39665;DHT22;26679;50.872;4.332;2023-05-16T07:42:06;13.20;99.90
39665;DHT22;26679;50.872;4.332;2023-05-16T07:44:32;13.30;99.90
39665;DHT22;26679;50.872;4.332;2023-05-16T07:47:04;13.40;99.90
39665;DHT22;26679;50.872;4.332;2023-05-16T07:49:30;13.50;99.90
39665;DHT22;26679;50.872;4.332;2023-05-16T07:51:56;13.40;99.90
39665;DHT22;26679;50.872;4.332;2023-05-16T07:54:21;13.20;99.90
39665;DHT22;26679;50.872;4.332;2023-05-16T07:56:47;13.20;99.90
39665;DHT22;26679;50.872;4.332;2023-05-16T07:59:12;13.30;99.90
39665;DHT22;26679;50.872;4.332;2023-05-16T08:01:38;13.60;99.90
39665;DHT22;26679;50.872;4.332;2023-05-16T08:04:04;13.40;99.70
39665;DHT22;26679;50.872;4.332;2023-05-16T08:06:30;13.40;99.50
39665;DHT22;26679;50.872;4.332;2023-05-16T08:08:55;13.50;99.80
39665;DHT22;26679;50.872;4.332;2023-05-16T08:11:21;13.60;99.00
39665;DHT22;26679;50.872;4.332;2023-05-16T08:13:47;13.60;98.90
39665;DHT22;26679;50.872;4.332;2023-05-16T08:16:13;13.50;99.00
39665;DHT22;26679;50.872;4.332;2023-05-16T08:18:38;13.30;99.20
39665;DHT22;26679;50.872;4.332;2023-05-16T08:21:04;13.40;99.60
39665;DHT22;26679;50.872;4.332;2023-05-16T08:23:29;13.40;99.50
39665;DHT22;26679;50.872;4.332;2023-05-16T08:25:55;13.50;99.40
39665;DHT22;26679;50.872;4.332;2023-05-16T08:28:20;13.90;99.60
39665;DHT22;26679;50.872;4.332;2023-05-16T08:30:46;14.30;99.30
39665;DHT22;26679;50.872;4.332;2023-05-16T08:33:12;14.60;98.40
39665;DHT22;26679;50.872;4.332;2023-05-16T08:35:41;14.70;98.50
39665;DHT22;26679;50.872;4.332;2023-05-16T08:38:06;14.70;98.50
39665;DHT22;26679;50.872;4.332;2023-05-16T08:40:32;14.40;98.90
39665;DHT22;26679;50.872;4.332;2023-05-16T08:42:58;14.30;99.00
39665;DHT22;26679;50.872;4.332;2023-05-16T08:45:23;14.30;99.00
39665;DHT22;26679;50.872;4.332;2023-05-16T08:47:49;14.30;99.10
39665;DHT22;26679;50.872;4.332;2023-05-16T08:50:18;14.50;98.90
39665;DHT22;26679;50.872;4.332;2023-05-16T08:52:44;14.50;98.50
39665;DHT22;26679;50.872;4.332;2023-05-16T08:55:11;14.40;98.50
39665;DHT22;26679;50.872;4.332;2023-05-16T08:57:37;14.20;98.70
39665;DHT22;26679;50.872;4.332;2023-05-16T09:00:06;13.90;98.80
39665;DHT22;26679;50.872;4.332;2023-05-16T09:02:36;13.90;98.70
39665;DHT22;26679;50.872;4.332;2023-05-16T09:05:02;13.80;99.10
39665;DHT22;26679;50.872;4.332;2023-05-16T09:07:28;13.70;98.90
39665;DHT22;26679;50.872;4.332;2023-05-16T09:09:57;13.90;98.90
39665;DHT22;26679;50.872;4.332;2023-05-16T09:12:22;14.00;98.80
39665;DHT22;26679;50.872;4.332;2023-05-16T09:14:48;14.10;98.80
39665;DHT22;26679;50.872;4.332;2023-05-16T09:17:13;14.20;98.60
39665;DHT22;26679;50.872;4.332;2023-05-16T09:19:40;14.60;98.80
39665;DHT22;26679;50.872;4.332;2023-05-16T09:22:13;15.60;98.10
39665;DHT22;26679;50.872;4.332;2023-05-16T09:24:42;16.90;96.80
39665;DHT22;26679;50.872;4.332;2023-05-16T09:29:34;17.00;94.00
39665;DHT22;26679;50.872;4.332;2023-05-16T09:34:37;17.70;93.50
39665;DHT22;26679;50.872;4.332;2023-05-16T09:37:02;18.50;93.20
39665;DHT22;26679;50.872;4.332;2023-05-16T09:39:28;19.50;91.80
39665;DHT22;26679;50.872;4.332;2023-05-16T09:41:53;20.10;90.30
39665;DHT22;26679;50.872;4.332;2023-05-16T09:44:19;20.10;90.30
39665;DHT22;26679;50.872;4.332;2023-05-16T09:46:45;20.10;90.30
39665;DHT22;26679;50.872;4.332;2023-05-16T09:49:11;19.90;89.10
39665;DHT22;26679;50.872;4.332;2023-05-16T09:51:37;19.60;90.00
39665;DHT22;26679;50.872;4.332;2023-05-16T09:54:06;20.40;89.90
39665;DHT22;26679;50.872;4.332;2023-05-16T09:56:31;21.10;88.50
39665;DHT22;26679;50.872;4.332;2023-05-16T09:58:57;21.80;87.20
39665;DHT22;26679;50.872;4.332;2023-05-16T10:01:23;22.10;85.30
39665;DHT22;26679;50.872;4.332;2023-05-16T10:03:49;22.50;82.40
39665;DHT22;26679;50.872;4.332;2023-05-16T10:06:15;23.00;82.30
39665;DHT22;26679;50.872;4.332;2023-05-16T10:08:41;22.80;81.10
39665;DHT22;26679;50.872;4.332;2023-05-16T10:11:07;22.90;81.60
39665;DHT22;26679;50.872;4.332;2023-05-16T10:13:33;22.60;82.00
39665;DHT22;26679;50.872;4.332;2023-05-16T10:16:00;21.90;82.70
39665;DHT22;26679;50.872;4.332;2023-05-16T10:18:29;21.60;83.30
39665;DHT22;26679;50.872;4.332;2023-05-16T10:20:56;21.00;83.60
39665;DHT22;26679;50.872;4.332;2023-05-16T10:23:22;20.10;84.50
39665;DHT22;26679;50.872;4.332;2023-05-16T10:25:49;20.60;84.20
39665;DHT22;26679;50.872;4.332;2023-05-16T10:28:14;21.70;83.20
39665;DHT22;26679;50.872;4.332;2023-05-16T10:30:43;22.80;81.00
39665;DHT22;26679;50.872;4.332;2023-05-16T10:33:13;23.10;79.10
39665;DHT22;26679;50.872;4.332;2023-05-16T10:35:39;22.30;78.60
39665;DHT22;26679;50.872;4.332;2023-05-16T10:38:06;22.10;79.90
39665;DHT22;26679;50.872;4.332;2023-05-16T10:40:31;22.60;79.00
39665;DHT22;26679;50.872;4.332;2023-05-16T10:42:58;23.30;78.70
39665;DHT22;26679;50.872;4.332;2023-05-16T10:45:24;23.60;77.90
39665;DHT22;26679;50.872;4.332;2023-05-16T10:47:53;23.40;78.00
39665;DHT22;26679;50.872;4.332;2023-05-16T10:53:34;24.00;77.00
39665;DHT22;26679;50.872;4.332;2023-05-16T11:03:36;21.90;79.00
39665;DHT22;26679;50.872;4.332;2023-05-16T11:06:02;21.70;77.60
39665;DHT22;26679;50.872;4.332;2023-05-16T11:08:27;20.80;78.60
39665;DHT22;26679;50.872;4.332;2023-05-16T11:11:36;21.10;80.20
39665;DHT22;26679;50.872;4.332;2023-05-16T11:13:52;22.10;79.60
39665;DHT22;26679;50.872;4.332;2023-05-16T11:18:54;21.70;78.80
39665;DHT22;26679;50.872;4.332;2023-05-16T11:26:41;21.90;79.40
39665;DHT22;26679;50.872;4.332;2023-05-16T11:29:07;21.60;80.20
39665;DHT22;26679;50.872;4.332;2023-05-16T11:31:33;22.90;79.20
39665;DHT22;26679;50.872;4.332;2023-05-16T11:33:59;23.50;76.10
39665;DHT22;26679;50.872;4.332;2023-05-16T11:36:24;22.70;76.50
39665;DHT22;26679;50.872;4.332;2023-05-16T11:38:52;21.80;78.60
39665;DHT22;26679;50.872;4.332;2023-05-16T11:41:18;21.40;79.30
39665;DHT22;26679;50.872;4.332;2023-05-16T11:43:43;22.30;79.20
39665;DHT22;26679;50.872;4.332;2023-05-16T11:46:10;22.80;76.50
39665;DHT22;26679;50.872;4.332;2023-05-16T11:48:35;22.00;77.50
39665;DHT22;26679;50.872;4.332;2023-05-16T11:51:01;21.60;78.60
39665;DHT22;26679;50.872;4.332;2023-05-16T11:53:27;21.50;79.50
39665;DHT22;26679;50.872;4.332;2023-05-16T11:55:53;22.70;79.30
39665;DHT22;26679;50.872;4.332;2023-05-16T11:58:19;23.80;77.40
39665;DHT22;26679;50.872;4.332;2023-05-16T12:00:48;24.60;75.60
39665;DHT22;26679;50.872;4.332;2023-05-16T12:03:14;24.90;73.90
39665;DHT22;26679;50.872;4.332;2023-05-16T12:05:48;24.10;74.90
39665;DHT22;26679;50.872;4.332;2023-05-16T12:08:14;24.50;74.90
39665;DHT22;26679;50.872;4.332;2023-05-16T12:10:40;24.90;73.20
39665;DHT22;26679;50.872;4.332;2023-05-16T12:13:06;24.30;74.10
39665;DHT22;26679;50.872;4.332;2023-05-16T12:15:32;25.10;74.40
39665;DHT22;26679;50.872;4.332;2023-05-16T12:17:58;25.50;73.20
39665;DHT22;26679;50.872;4.332;2023-05-16T12:20:23;23.80;73.80
39665;DHT22;26679;50.872;4.332;2023-05-16T12:22:50;23.00;75.00
39665;DHT22;26679;50.872;4.332;2023-05-16T12:25:20;22.20;75.30
39665;DHT22;26679;50.872;4.332;2023-05-16T12:27:45;21.80;75.80
39665;DHT22;26679;50.872;4.332;2023-05-16T12:30:11;21.50;76.90
39665;DHT22;26679;50.872;4.332;2023-05-16T12:32:37;21.30;77.10
39665;DHT22;26679;50.872;4.332;2023-05-16T12:35:02;21.90;77.00
39665;DHT22;26679;50.872;4.332;2023-05-16T12:37:28;22.70;74.60
39665;DHT22;26679;50.872;4.332;2023-05-16T12:39:58;23.30;74.20
39665;DHT22;26679;50.872;4.332;2023-05-16T12:42:25;24.50;72.50
39665;DHT22;26679;50.872;4.332;2023-05-16T12:44:54;26.00;69.70
39665;DHT22;26679;50.872;4.332;2023-05-16T12:47:21;26.50;69.00
39665;DHT22;26679;50.872;4.332;2023-05-16T12:49:47;25.20;69.30
39665;DHT22;26679;50.872;4.332;2023-05-16T12:52:18;25.10;68.80
39665;DHT22;26679;50.872;4.332;2023-05-16T12:54:45;24.70;69.80
39665;DHT22;26679;50.872;4.332;2023-05-16T12:57:11;25.00;69.50
39665;DHT22;26679;50.872;4.332;2023-05-16T12:59:36;24.80;69.00
39665;DHT22;26679;50.872;4.332;2023-05-16T13:02:02;24.80;69.70
39665;DHT22;26679;50.872;4.332;2023-05-16T13:04:28;25.10;67.20
39665;DHT22;26679;50.872;4.332;2023-05-16T13:06:54;25.60;66.70
39665;DHT22;26679;50.872;4.332;2023-05-16T13:09:20;26.50;67.40
39665;DHT22;26679;50.872;4.332;2023-05-16T13:11:46;27.10;66.00
39665;DHT22;26679;50.872;4.332;2023-05-16T13:14:11;27.50;66.40
39665;DHT22;26679;50.872;4.332;2023-05-16T13:16:37;27.50;65.30
39665;DHT22;26679;50.872;4.332;2023-05-16T13:19:03;27.70;65.60
39665;DHT22;26679;50.872;4.332;2023-05-16T13:21:29;27.80;66.50
39665;DHT22;26679;50.872;4.332;2023-05-16T13:23:56;27.60;66.30
39665;DHT22;26679;50.872;4.332;2023-05-16T13:26:22;27.40;65.70
39665;DHT22;26679;50.872;4.332;2023-05-16T13:28:47;27.10;65.50
39665;DHT22;26679;50.872;4.332;2023-05-16T13:31:15;27.60;65.10
39665;DHT22;26679;50.872;4.332;2023-05-16T13:33:41;26.90;65.10
39665;DHT22;26679;50.872;4.332;2023-05-16T13:36:06;26.80;65.70
39665;DHT22;26679;50.872;4.332;2023-05-16T13:38:32;26.30;65.90
39665;DHT22;26679;50.872;4.332;2023-05-16T13:40:58;26.60;66.60
39665;DHT22;26679;50.872;4.332;2023-05-16T13:43:23;27.40;65.50
39665;DHT22;26679;50.872;4.332;2023-05-16T13:45:49;27.30;65.00
39665;DHT22;26679;50.872;4.332;2023-05-16T13:48:14;26.30;65.80
39665;DHT22;26679;50.872;4.332;2023-05-16T13:50:40;26.70;65.90
39665;DHT22;26679;50.872;4.332;2023-05-16T13:53:08;27.20;65.70
39665;DHT22;26679;50.872;4.332;2023-05-16T13:55:34;27.30;66.00
39665;DHT22;26679;50.872;4.332;2023-05-16T13:57:59;26.50;65.20
39665;DHT22;26679;50.872;4.332;2023-05-16T14:00:25;25.50;66.10
39665;DHT22;26679;50.872;4.332;2023-05-16T14:02:51;24.60;67.20
39665;DHT22;26679;50.872;4.332;2023-05-16T14:05:17;24.00;68.70
39665;DHT22;26679;50.872;4.332;2023-05-16T14:07:42;25.00;67.80
39665;DHT22;26679;50.872;4.332;2023-05-16T14:10:08;26.10;66.90
39665;DHT22;26679;50.872;4.332;2023-05-16T14:12:34;26.40;65.80
39665;DHT22;26679;50.872;4.332;2023-05-16T14:15:00;25.40;65.60
39665;DHT22;26679;50.872;4.332;2023-05-16T14:17:26;24.50;66.60
39665;DHT22;26679;50.872;4.332;2023-05-16T14:19:51;24.60;67.20
39665;DHT22;26679;50.872;4.332;2023-05-16T14:22:18;25.70;67.00
39665;DHT22;26679;50.872;4.332;2023-05-16T14:24:43;26.40;65.10
39665;DHT22;26679;50.872;4.332;2023-05-16T14:27:09;26.60;65.20
39665;DHT22;26679;50.872;4.332;2023-05-16T14:29:34;26.90;64.70
39665;DHT22;26679;50.872;4.332;2023-05-16T14:32:00;27.30;64.60
39665;DHT22;26679;50.872;4.332;2023-05-16T14:34:26;26.80;63.80
39665;DHT22;26679;50.872;4.332;2023-05-16T14:36:51;27.50;63.80
39665;DHT22;26679;50.872;4.332;2023-05-16T14:39:17;26.60;63.20
39665;DHT22;26679;50.872;4.332;2023-05-16T14:41:43;26.50;63.80
39665;DHT22;26679;50.872;4.332;2023-05-16T14:44:08;26.40;63.80
39665;DHT22;26679;50.872;4.332;2023-05-16T14:46:34;26.80;63.80
39665;DHT22;26679;50.872;4.332;2023-05-16T14:48:59;26.40;63.20
39665;DHT22;26679;50.872;4.332;2023-05-16T14:51:25;26.10;64.20
39665;DHT22;26679;50.872;4.332;2023-05-16T14:53:50;26.70;64.20
39665;DHT22;26679;50.872;4.332;2023-05-16T14:56:16;27.30;64.70
39665;DHT22;26679;50.872;4.332;2023-05-16T14:58:41;27.70;63.60
39665;DHT22;26679;50.872;4.332;2023-05-16T15:01:07;27.90;63.70
39665;DHT22;26679;50.872;4.332;2023-05-16T15:03:33;27.90;63.60
39665;DHT22;26679;50.872;4.332;2023-05-16T15:05:58;27.80;64.00
39665;DHT22;26679;50.872;4.332;2023-05-16T15:08:24;26.80;64.40
39665;DHT22;26679;50.872;4.332;2023-05-16T15:10:50;25.20;65.90
39665;DHT22;26679;50.872;4.332;2023-05-16T15:13:15;24.40;66.80
39665;DHT22;26679;50.872;4.332;2023-05-16T15:15:41;23.50;67.80
39665;DHT22;26679;50.872;4.332;2023-05-16T15:18:06;23.50;67.90
39665;DHT22;26679;50.872;4.332;2023-05-16T15:20:32;23.10;67.90
39665;DHT22;26679;50.872;4.332;2023-05-16T15:22:58;23.70;68.40
39665;DHT22;26679;50.872;4.332;2023-05-16T15:25:24;24.00;68.00
39665;DHT22;26679;50.872;4.332;2023-05-16T15:27:50;23.60;68.30
39665;DHT22;26679;50.872;4.332;2023-05-16T15:30:15;24.50;68.50
39665;DHT22;26679;50.872;4.332;2023-05-16T15:32:41;25.40;67.10
39665;DHT22;26679;50.872;4.332;2023-05-16T15:35:06;25.70;66.90
39665;DHT22;26679;50.872;4.332;2023-05-16T15:37:32;26.30;66.80
39665;DHT22;26679;50.872;4.332;2023-05-16T15:39:58;26.80;66.20
39665;DHT22;26679;50.872;4.332;2023-05-16T15:42:23;26.80;65.40
39665;DHT22;26679;50.872;4.332;2023-05-16T15:44:49;26.40;65.80
39665;DHT22;26679;50.872;4.332;2023-05-16T15:47:14;26.70;65.90
39665;DHT22;26679;50.872;4.332;2023-05-16T15:49:40;26.80;65.30
39665;DHT22;26679;50.872;4.332;2023-05-16T15:52:05;27.00;65.40
39665;DHT22;26679;50.872;4.332;2023-05-16T15:54:31;27.10;64.90
39665;DHT22;26679;50.872;4.332;2023-05-16T15:56:56;26.30;65.50
39665;DHT22;26679;50.872;4.332;2023-05-16T15:59:22;25.50;66.10
39665;DHT22;26679;50.872;4.332;2023-05-16T16:01:48;24.90;66.20
39665;DHT22;26679;50.872;4.332;2023-05-16T16:04:13;24.90;67.20
39665;DHT22;26679;50.872;4.332;2023-05-16T16:06:39;24.90;66.80
39665;DHT22;26679;50.872;4.332;2023-05-16T16:09:05;24.30;67.70